createdAt,value
2023-06-29T20:27:35.419Z,57.70
2023-06-29T20:30:03.006Z,33.50
2023-06-29T20:32:31.949Z,46.15
2023-06-29T20:34:59.423Z,30.27
2023-06-29T20:39:53.136Z,39.15
2023-06-29T20:42:20.537Z,48.65
2023-06-29T20:44:52.099Z,42.78
2023-06-29T20:47:21.344Z,47.42
2023-06-29T20:49:49.577Z,46.63
2023-06-29T20:52:17.278Z,47.10
2023-06-29T20:54:44.941Z,49.07
2023-06-29T20:57:12.469Z,47.70
2023-06-29T20:59:41.482Z,46.83
2023-06-29T21:02:10.457Z,62.07
2023-06-29T21:04:38.371Z,54.77
2023-06-29T21:07:07.443Z,54.97
2023-06-29T21:09:35.315Z,63.50
2023-06-29T21:12:04.130Z,58.37
2023-06-29T21:14:31.822Z,60.20
2023-06-29T21:16:59.536Z,54.97
2023-06-29T21:19:27.213Z,60.13
2023-06-29T21:21:55.586Z,65.70
2023-06-29T21:24:23.377Z,64.73
2023-06-29T21:26:52.329Z,68.87
2023-06-29T21:29:41.015Z,65.50
2023-06-29T21:32:11.574Z,62.37
2023-06-29T21:34:40.061Z,57.90
2023-06-29T21:37:10.188Z,54.40
2023-06-29T21:39:39.680Z,57.50
2023-06-29T21:42:08.108Z,51.63
2023-06-29T21:44:35.609Z,51.83
2023-06-29T21:47:03.985Z,57.80
2023-06-29T21:49:31.664Z,57.97
2023-06-29T21:51:59.410Z,55.33
2023-06-29T21:54:26.965Z,58.97
2023-06-29T21:56:54.483Z,67.53
2023-06-29T21:59:21.863Z,58.57
2023-06-29T22:01:49.348Z,62.17
2023-06-29T22:04:16.857Z,57.63
2023-06-29T22:06:44.422Z,60.10
2023-06-29T22:09:11.875Z,56.90
2023-06-29T22:11:42.300Z,63.30
2023-06-29T22:14:10.079Z,60.00
2023-06-29T22:16:37.819Z,62.80
2023-06-29T22:19:05.417Z,60.80
2023-06-29T22:21:32.825Z,58.13
2023-06-29T22:24:00.428Z,64.37
2023-06-29T22:26:27.938Z,57.90
2023-06-29T22:28:55.345Z,59.07
2023-06-29T22:31:22.879Z,59.60
2023-06-29T22:33:50.420Z,60.93
2023-06-29T22:36:19.228Z,63.47
2023-06-29T22:38:47.340Z,61.60
2023-06-29T22:41:14.968Z,57.17
2023-06-29T22:43:42.401Z,58.23
2023-06-29T22:46:11.031Z,59.00
2023-06-29T22:48:39.004Z,63.13
2023-06-29T22:51:10.807Z,63.43
2023-06-29T22:53:38.245Z,62.47
2023-06-29T22:56:05.697Z,64.23
2023-06-29T22:58:33.043Z,64.93
2023-06-29T23:01:00.402Z,60.20
2023-06-29T23:06:06.541Z,65.83
2023-06-29T23:08:33.970Z,62.27
2023-06-29T23:11:04.094Z,64.73
2023-06-29T23:13:41.049Z,76.53
2023-06-29T23:16:09.377Z,67.63
2023-06-29T23:18:36.857Z,63.20
2023-06-29T23:21:04.286Z,60.30
2023-06-29T23:23:32.707Z,61.83
2023-06-29T23:26:00.426Z,58.67
2023-06-29T23:28:27.818Z,55.73
2023-06-29T23:30:58.501Z,60.70
2023-06-29T23:33:26.108Z,58.13
2023-06-29T23:35:53.530Z,66.50
2023-06-29T23:38:20.901Z,65.77
2023-06-29T23:40:48.628Z,71.87
2023-06-29T23:43:16.122Z,64.43
2023-06-29T23:45:43.798Z,62.73
2023-06-29T23:48:11.328Z,60.83
2023-06-29T23:50:39.860Z,70.87
2023-06-29T23:53:08.401Z,65.23
2023-06-29T23:55:36.003Z,74.83
2023-06-29T23:58:04.330Z,77.60
